Andrus Island, California
Current Conditions -  °F | °C
As of 7:58 PM on Saturday 25 Oct 2014 (Local Time) from KSUU Reporting Station
Few Clouds Few Clouds  
Wind Chill: 62°   Ceiling: Unl
Heat Index: 62°   Visibility: 10mi
Dew Point: 58°   Wind: 9mph
Humidity: 87%   Direction: 250°WSW
Pressure: 30.06"   Gusts: NA
Location:  38.1457°N, 121.624°W
Report Text: KSUU 260258Z AUTO 25008KT 10SM FEW033 17/15 A3006 RMK AO2 SLP186 60000 T01670146 52012 $
Loading
Personal Weather Stations






























Interactive Weather Map
Tropical Storm Tracking
New forecast layout! Learn more

10-Day Weather Forecast

Advertisements
Track Severe Weather on mobile